Daily Summary

Last 30 Days

Daily Data | America/Los_Angeles
as of 5/27/20 7:19 AM PDT
Date Daily Max Temp (°F) Daily Min Temp (°F) Daily Rain (In) Seasonal Rainfall (In) Daily Solar Rad (Cal/cm2) Daily ETo (in) Wind Spd (mph) Daily Max Wind (mph) Max Wind Dir (°) Dew Pt (°F) Max RH (%) Min RH (%) Daily Leaf Wet Hrs (hrs) Soil Temp (°F) Soil Moist (%) Fuel Moisture (%) Max Fuel Moisture (%) Min Fuel Moisture (%) Bat Volt Min Day (V)
5/26/20 91.9 65.4 0.00 30.58 722 0.230 1.4 6.4 NNW | 342 51.2 64 21 0.0 62.0 17.3 7 14 0 12.5
5/25/20 91.4 61.8 0.00 30.58 721 0.227 1.3 8.2 SSW | 197 48.3 66 17 0.0 61.8 18.2 8 16 0 12.5
5/24/20 85.9 52.4 0.00 30.58 732 0.222 1.4 7.9 SW | 232 44.1 68 20 0.0 61.7 19.1 9 18 0 12.5
5/23/20 79.1 45.8 0.00 30.58 746 0.215 1.7 10.3 WSW | 246 42.3 89 15 3.4 61.6 20.0 12 24 0 12.5
5/22/20 72.8 45.5 0.00 30.58 709 0.196 1.3 8.6 WNW | 286 47.0 92 42 10.5 61.6 20.8 14 24 0 12.5
5/21/20 76.7 46.1 0.00 30.58 714 0.205 1.2 7.3 WNW | 295 47.9 94 30 9.4 61.6 21.7 15 27 0 12.5
5/20/20 68.2 44.6 0.00 30.58 572 0.154 1.4 9.6 S | 174 47.5 93 53 11.8 61.7 22.6 19 27 0 12.6
5/19/20 67.0 43.0 0.00 30.58 474 0.124 1.6 9.7 SSW | 197 45.5 95 45 12.8 61.7 23.9 23 32 1 12.6
5/18/20 64.0 44.6 0.61 30.58 557 0.143 2.4 15.5 WSW | 256 47.8 95 53 12.4 61.7 26.0 36 56 12 12.4
5/17/20 58.8 53.2 0.84 29.97 138 0.039 2.4 18.9 WSW | 249 53.6 95 80 22.4 61.6 20.5 47 57 18 12.5
5/16/20 76.8 48.4 0.00 29.13 716 0.204 1.5 9.8 WNW | 300 45.4 81 30 0.0 61.5 15.0 11 20 0 12.6
5/15/20 76.0 48.2 0.00 29.13 694 0.194 1.5 10.0 SW | 216 42.8 93 18 8.2 61.6 15.1 17 31 0 12.6
5/14/20 68.4 45.7 0.00 29.13 481 0.128 1.3 7.9 W | 262 49.9 95 58 13.2 61.7 15.1 34 52 4 12.5
5/13/20 65.5 42.8 0.07 29.13 394 0.105 1.2 10.4 SSW | 209 46.6 95 55 17.8 61.7 15.0 33 50 14 12.5
5/12/20 64.9 45.0 0.05 29.06 370 0.095 1.6 10.7 SW | 217 48.2 95 51 13.7 61.6 15.0 39 54 19 12.6
5/11/20 64.2 43.8 0.18 29.01 574 0.153 1.4 11.3 WSW | 243 44.7 94 39 14.3 61.4 14.8 23 54 5 12.5
5/10/20 67.7 45.2 0.00 28.83 692 0.186 1.3 7.0 SW | 235 47.7 95 52 10.1 61.1 15.0 12 20 0 12.5
5/9/20 77.5 46.6 0.00 28.83 686 0.201 1.3 7.9 WSW | 250 45.0 93 33 5.0 60.8 15.2 8 17 0 12.5
5/8/20 89.0 60.7 0.00 28.83 674 0.206 1.4 8.6 NW | 307 39.7 50 13 0.0 60.6 15.6 7 12 0 12.5
5/7/20 87.6 59.3 0.00 28.83 687 0.206 2.1 11.0 NE | 45 35.2 43 13 0.0 60.4 15.9 6 12 0 12.5
5/6/20 78.9 46.8 0.00 28.83 699 0.201 2.4 19.7 NE | 49 38.6 90 20 3.7 60.3 16.2 10 20 0 12.5
5/5/20 80.3 49.9 0.00 28.83 685 0.200 1.5 9.7 SW | 232 40.7 88 20 2.7 60.2 16.6 8 17 0 12.5
5/4/20 80.4 45.0 0.00 28.83 688 0.196 1.6 8.2 WSW | 252 29.0 63 8 0.0 60.0 17.0 9 18 0 12.5
5/3/20 73.6 46.4 0.00 28.83 686 0.191 1.6 10.2 SSW | 205 40.9 90 20 6.3 59.8 17.4 13 24 0 12.5
5/2/20 74.9 46.8 0.00 28.83 622 0.176 1.5 9.4 SSW | 208 47.9 88 41 3.3 59.6 17.8 13 21 0 12.5
5/1/20 78.7 47.2 0.00 28.83 670 0.190 1.4 11.4 WSW | 239 36.8 82 15 0.0 59.4 18.2 10 17 0 12.5
4/30/20 78.6 46.9 0.00 28.83 672 0.191 1.3 10.0 WSW | 246 41.2 92 15 8.7 59.1 18.8 13 26 0 12.5
4/29/20 75.0 50.2 0.00 28.83 494 0.139 1.2 8.2 WSW | 238 53.3 92 46 4.0 58.7 19.4 14 21 0 12.5
4/28/20 84.7 57.0 0.00 28.83 649 0.199 1.3 8.4 NW | 320 53.1 78 33 0.0 58.4 19.9 11 20 0 12.5
4/27/20 80.2 48.4 0.00 28.83 649 0.188 1.3 11.7 WSW | 237 44.1 77 24 0.0 58.0 20.4 10 18 0 12.5
Max 91.9 65.4 0.84 - 746 0.230 2.4 19.7 - 53.6 95 80 22.4 62.0 26.0 47 57 19 12.6
Avg - - - - - - 1.5 - - 44.9 - - - 60.8 18.1 16 27 2 -
Min 58.8 42.8 0.00 - 138 0.039 1.2 6.4 - 29.0 43 8 0.0 58.0 14.8 6 12 0 12.4